createdAt,value
2022-12-17T00:01:58.247Z,74.75
2022-12-17T00:04:58.787Z,75.35
2022-12-17T00:08:05.246Z,75.04
2022-12-17T00:11:06.027Z,75.09
2022-12-17T00:14:13.213Z,75.64
2022-12-17T00:17:13.818Z,75.19
2022-12-17T00:20:20.268Z,74.81
2022-12-17T00:23:35.512Z,75.15
2022-12-17T00:26:42.124Z,75.25
2022-12-17T00:29:49.284Z,75.12
2022-12-17T00:32:53.198Z,75.77
2022-12-17T00:36:00.261Z,75.63
2022-12-17T00:39:01.141Z,75.89
2022-12-17T00:42:08.298Z,75.99
2022-12-17T00:45:11.191Z,75.62
2022-12-17T00:48:20.375Z,75.98
2022-12-17T00:51:28.406Z,76.08
2022-12-17T00:54:36.286Z,76.44
2022-12-17T00:57:38.395Z,75.87
2022-12-17T01:00:41.912Z,75.17
2022-12-17T01:03:48.426Z,75.63
2022-12-17T01:06:48.863Z,76.30
2022-12-17T01:09:55.312Z,76.38
2022-12-17T01:12:56.720Z,75.98
2022-12-17T01:16:04.216Z,75.78
2022-12-17T01:19:04.554Z,75.41
2022-12-17T01:22:11.296Z,75.79
2022-12-17T01:25:18.140Z,76.10
2022-12-17T01:28:19.323Z,76.69
2022-12-17T01:31:29.068Z,76.03
2022-12-17T01:34:31.905Z,75.86
2022-12-17T01:37:39.201Z,75.53
2022-12-17T01:40:42.057Z,75.79
2022-12-17T01:44:01.247Z,76.03
2022-12-17T01:47:12.087Z,76.15
2022-12-17T01:50:19.373Z,76.02
2022-12-17T01:53:31.393Z,76.06
2022-12-17T01:56:32.587Z,76.61
2022-12-17T01:59:41.340Z,76.41
2022-12-17T02:02:49.208Z,76.26
2022-12-17T02:06:00.441Z,76.79
2022-12-17T02:09:17.218Z,76.55
2022-12-17T02:12:18.387Z,76.94
2022-12-17T02:15:45.061Z,77.65
2022-12-17T02:18:51.183Z,77.26
2022-12-17T02:21:55.365Z,77.09
2022-12-17T02:25:08.386Z,77.08
2022-12-17T02:28:16.941Z,76.76
2022-12-17T02:31:24.324Z,76.38
2022-12-17T02:34:26.218Z,75.78
2022-12-17T02:37:34.460Z,75.98
2022-12-17T02:40:36.126Z,75.89
2022-12-17T02:43:45.236Z,75.72
2022-12-17T02:47:13.625Z,76.10
2022-12-17T02:50:14.247Z,74.75
2022-12-17T02:53:22.270Z,74.72
2022-12-17T02:56:28.733Z,74.21
2022-12-17T02:59:29.309Z,74.44
2022-12-17T03:02:43.363Z,73.62
2022-12-17T03:05:50.262Z,74.41
2022-12-17T03:08:57.276Z,73.85
2022-12-17T03:12:04.309Z,72.82
2022-12-17T03:15:04.847Z,72.25
2022-12-17T03:18:12.202Z,74.82
2022-12-17T03:21:14.148Z,73.92
2022-12-17T03:24:21.362Z,73.38
2022-12-17T03:27:21.782Z,72.30
2022-12-17T03:30:30.982Z,70.49
2022-12-17T03:33:40.217Z,69.00
2022-12-17T03:36:50.340Z,68.14
2022-12-17T03:39:50.498Z,66.59
2022-12-17T03:42:57.243Z,64.70
2022-12-17T03:45:57.836Z,62.58
2022-12-17T03:49:04.320Z,59.93
2022-12-17T03:52:04.862Z,59.01
2022-12-17T03:55:11.162Z,57.46
2022-12-17T03:58:18.172Z,54.77
2022-12-17T04:01:26.296Z,53.72
2022-12-17T04:04:39.397Z,52.42
2022-12-17T04:07:46.191Z,52.10
2022-12-17T04:10:46.180Z,51.07
2022-12-17T04:13:54.242Z,52.31
2022-12-17T04:16:55.141Z,50.91
2022-12-17T04:19:55.700Z,51.90
2022-12-17T04:23:02.205Z,50.13
2022-12-17T04:26:08.965Z,51.95
2022-12-17T04:29:10.351Z,49.58
2022-12-17T04:32:17.207Z,51.00
2022-12-17T04:35:18.302Z,49.99
2022-12-17T04:38:18.921Z,49.67
2022-12-17T04:41:25.349Z,48.82
2022-12-17T04:44:31.770Z,48.77
2022-12-17T04:47:32.220Z,47.41
2022-12-17T04:50:32.579Z,48.87
2022-12-17T04:53:39.440Z,47.99
2022-12-17T04:56:40.307Z,47.74
2022-12-17T04:59:47.325Z,48.81
2022-12-17T05:02:47.646Z,47.52
2022-12-17T05:05:57.279Z,48.45
2022-12-17T05:09:04.095Z,48.57
2022-12-17T05:12:05.331Z,48.02
2022-12-17T05:15:11.865Z,49.29
2022-12-17T05:18:12.217Z,48.74
2022-12-17T05:21:19.321Z,49.54
2022-12-17T05:24:19.949Z,48.11
2022-12-17T05:27:26.352Z,50.18
2022-12-17T05:30:40.220Z,47.60
2022-12-17T05:33:47.360Z,48.42
2022-12-17T05:36:47.854Z,47.07
2022-12-17T05:39:54.358Z,47.20
2022-12-17T05:42:58.012Z,46.13
2022-12-17T05:46:06.381Z,47.62
2022-12-17T05:49:07.966Z,44.91
2022-12-17T05:52:15.156Z,44.46
2022-12-17T05:55:15.689Z,44.16
2022-12-17T05:58:48.357Z,42.34
2022-12-17T06:01:49.084Z,43.91
2022-12-17T06:05:01.814Z,43.89
2022-12-17T06:08:03.176Z,42.06
2022-12-17T06:11:12.251Z,42.74
2022-12-17T06:14:14.612Z,43.36
2022-12-17T06:17:22.586Z,41.94
2022-12-17T06:20:22.720Z,42.31
2022-12-17T06:23:32.185Z,42.95
2022-12-17T06:26:33.062Z,42.12
2022-12-17T06:29:51.176Z,42.55
2022-12-17T06:32:58.025Z,42.63
2022-12-17T06:35:59.317Z,43.09
2022-12-17T06:39:06.205Z,43.21
2022-12-17T06:42:07.288Z,42.64
2022-12-17T06:45:17.379Z,44.28
2022-12-17T06:48:18.273Z,42.06
2022-12-17T06:51:25.189Z,42.82
2022-12-17T06:54:32.143Z,41.36
2022-12-17T06:57:41.280Z,41.04
2022-12-17T07:00:44.333Z,41.63
2022-12-17T07:03:44.718Z,41.50
2022-12-17T07:06:51.320Z,42.27
2022-12-17T07:10:09.334Z,41.33
2022-12-17T07:13:20.009Z,42.59
2022-12-17T07:16:21.291Z,43.80
2022-12-17T07:19:26.795Z,42.18
2022-12-17T07:22:34.172Z,41.64
2022-12-17T07:25:46.007Z,43.25
2022-12-17T07:28:47.366Z,42.21
2022-12-17T07:31:54.266Z,40.73
2022-12-17T07:34:55.313Z,40.82
2022-12-17T07:37:55.609Z,40.21
2022-12-17T07:41:02.311Z,40.57
2022-12-17T07:44:08.909Z,39.30
2022-12-17T07:47:09.354Z,39.12
2022-12-17T07:50:09.764Z,40.72
2022-12-17T07:53:16.223Z,40.48
2022-12-17T07:56:22.810Z,38.54
2022-12-17T07:59:23.300Z,41.80
2022-12-17T08:02:23.720Z,39.86
2022-12-17T08:05:30.277Z,39.77
2022-12-17T08:08:39.781Z,40.30
2022-12-17T08:11:40.166Z,40.44
2022-12-17T08:14:47.673Z,40.52
2022-12-17T08:17:48.078Z,40.58
2022-12-17T08:20:55.352Z,38.90
2022-12-17T08:23:55.777Z,39.20
2022-12-17T08:27:02.416Z,39.96
2022-12-17T08:30:03.136Z,39.87
2022-12-17T08:33:10.402Z,39.53
2022-12-17T08:36:20.976Z,39.43
2022-12-17T08:39:28.307Z,39.23
2022-12-17T08:42:36.160Z,41.32
2022-12-17T08:45:43.281Z,40.19
2022-12-17T08:48:51.169Z,40.03
2022-12-17T08:51:58.353Z,41.10
2022-12-17T08:54:59.345Z,41.25
2022-12-17T08:58:06.249Z,42.58
2022-12-17T09:01:08.083Z,39.11
2022-12-17T09:04:15.196Z,39.90
2022-12-17T09:07:16.267Z,40.41
2022-12-17T09:10:23.233Z,41.07
2022-12-17T09:13:28.407Z,40.30
2022-12-17T09:16:36.313Z,40.34
2022-12-17T09:19:44.386Z,40.58
2022-12-17T09:22:44.432Z,39.34
2022-12-17T09:25:55.048Z,37.29
2022-12-17T09:28:58.682Z,36.38
2022-12-17T09:32:06.289Z,37.07
2022-12-17T09:35:13.152Z,36.91
2022-12-17T09:38:30.321Z,38.17
2022-12-17T09:42:09.872Z,38.79
2022-12-17T09:45:57.400Z,39.67
2022-12-17T09:49:02.915Z,38.00
2022-12-17T09:52:11.190Z,39.21
2022-12-17T09:55:26.260Z,39.13
2022-12-17T09:58:28.792Z,38.31
2022-12-17T10:01:51.439Z,38.00
2022-12-17T10:05:12.244Z,38.84
2022-12-17T10:08:20.385Z,39.30
2022-12-17T10:11:21.846Z,37.94
2022-12-17T10:14:31.289Z,39.31
2022-12-17T10:17:36.924Z,39.33
2022-12-17T10:21:04.763Z,39.58
2022-12-17T10:24:04.779Z,39.61
2022-12-17T10:27:15.318Z,39.64
2022-12-17T10:30:15.814Z,40.21
2022-12-17T10:33:22.313Z,40.81
2022-12-17T10:36:22.886Z,40.92
2022-12-17T10:39:30.276Z,41.63
2022-12-17T10:42:47.207Z,42.70
2022-12-17T10:46:00.372Z,42.83
2022-12-17T10:49:01.157Z,43.91
2022-12-17T10:52:08.281Z,43.85
2022-12-17T10:55:08.931Z,43.61
2022-12-17T10:58:18.188Z,43.82
2022-12-17T11:01:27.093Z,44.67
2022-12-17T11:04:49.311Z,45.82
2022-12-17T11:08:06.995Z,45.72
2022-12-17T11:11:15.164Z,46.80
2022-12-17T11:14:28.264Z,47.11
2022-12-17T11:17:44.228Z,47.50
2022-12-17T11:20:55.226Z,48.55
2022-12-17T11:24:07.889Z,48.14
2022-12-17T11:27:22.159Z,49.58
2022-12-17T11:30:48.309Z,51.11
2022-12-17T11:34:10.880Z,49.62
2022-12-17T11:37:22.266Z,51.34
2022-12-17T11:40:47.721Z,51.49
2022-12-17T11:44:13.289Z,52.52
2022-12-17T11:47:29.549Z,53.42
2022-12-17T11:50:54.121Z,54.48
2022-12-17T11:54:11.940Z,55.10
2022-12-17T11:57:22.412Z,56.45
2022-12-17T12:00:41.762Z,57.76
2022-12-17T12:04:17.304Z,58.61
2022-12-17T12:07:37.602Z,59.38
2022-12-17T12:11:08.254Z,59.15
2022-12-17T12:14:31.757Z,59.30
2022-12-17T12:17:43.224Z,59.48
2022-12-17T12:21:14.258Z,59.72
2022-12-17T12:24:54.838Z,60.50
2022-12-17T12:28:17.607Z,61.16
2022-12-17T12:31:23.930Z,61.94
2022-12-17T12:34:35.377Z,61.22
2022-12-17T12:37:38.299Z,61.34
2022-12-17T12:40:55.270Z,62.22
2022-12-17T12:44:07.168Z,63.03
2022-12-17T12:47:43.251Z,63.82
2022-12-17T12:51:01.169Z,63.38
2022-12-17T12:54:08.178Z,64.07
2022-12-17T12:57:15.768Z,64.38
2022-12-17T13:00:16.228Z,65.47
2022-12-17T13:03:31.136Z,64.88
2022-12-17T13:06:21.227Z,64.68
2022-12-17T13:09:34.548Z,64.55
2022-12-17T13:12:32.673Z,65.34
2022-12-17T13:15:35.251Z,65.28
2022-12-17T13:18:33.648Z,65.70
2022-12-17T13:21:25.283Z,65.58
2022-12-17T13:24:18.593Z,65.72
2022-12-17T13:27:07.130Z,66.04
2022-12-17T13:29:49.526Z,66.18
2022-12-17T13:32:47.225Z,66.01
2022-12-17T13:36:01.554Z,66.03
2022-12-17T13:39:08.186Z,66.08
2022-12-17T13:41:51.602Z,66.50
2022-12-17T13:44:49.139Z,67.39
2022-12-17T13:47:34.685Z,67.37
2022-12-17T13:50:36.788Z,67.77
2022-12-17T13:53:23.700Z,67.59
2022-12-17T13:56:12.170Z,67.62
2022-12-17T13:59:06.203Z,67.82
2022-12-17T14:01:56.328Z,68.49
2022-12-17T14:04:39.619Z,68.44
2022-12-17T14:07:28.189Z,68.07
2022-12-17T14:10:25.508Z,68.54
2022-12-17T14:13:24.250Z,68.14
2022-12-17T14:16:13.583Z,68.75
2022-12-17T14:19:05.255Z,68.76
2022-12-17T14:21:47.749Z,68.83
2022-12-17T14:24:40.338Z,69.26
2022-12-17T14:27:39.474Z,69.13
2022-12-17T14:30:30.283Z,70.27
2022-12-17T14:33:37.895Z,70.34
2022-12-17T14:36:34.236Z,70.91
2022-12-17T14:39:40.111Z,70.27
2022-12-17T14:42:40.129Z,70.33
2022-12-17T14:45:32.598Z,70.53
2022-12-17T14:48:23.235Z,70.91
2022-12-17T14:51:05.483Z,71.39
2022-12-17T14:53:54.276Z,71.38
2022-12-17T14:56:36.546Z,70.92
2022-12-17T14:59:49.167Z,71.05
2022-12-17T15:02:39.536Z,70.82
2022-12-17T15:05:24.182Z,71.38
2022-12-17T15:08:14.224Z,71.76
2022-12-17T15:11:06.183Z,71.67
2022-12-17T15:13:56.738Z,71.53
2022-12-17T15:16:39.649Z,72.17
2022-12-17T15:19:28.197Z,71.81
2022-12-17T15:22:19.295Z,71.81
2022-12-17T15:25:01.547Z,71.34
2022-12-17T15:27:50.240Z,72.12
2022-12-17T15:30:38.662Z,72.43
2022-12-17T15:33:27.290Z,72.74
2022-12-17T15:36:09.541Z,72.48
2022-12-17T15:38:58.307Z,72.17
2022-12-17T15:41:58.901Z,72.91
2022-12-17T15:44:48.304Z,72.59
2022-12-17T15:47:30.547Z,72.09
2022-12-17T15:50:19.277Z,72.13
2022-12-17T15:53:01.602Z,72.92
2022-12-17T15:55:50.251Z,73.54
2022-12-17T15:58:32.542Z,73.27
2022-12-17T16:01:21.272Z,74.17
2022-12-17T16:04:16.813Z,74.40
2022-12-17T16:07:08.258Z,73.68
2022-12-17T16:09:50.517Z,72.96
2022-12-17T16:12:39.237Z,72.87
2022-12-17T16:15:29.326Z,73.04
2022-12-17T16:18:18.787Z,73.80
2022-12-17T16:21:01.249Z,73.55
2022-12-17T16:23:50.714Z,73.53
2022-12-17T16:26:32.182Z,73.41
2022-12-17T16:29:20.525Z,73.50
2022-12-17T16:32:16.278Z,73.24
2022-12-17T16:34:58.470Z,73.20
2022-12-17T16:37:47.369Z,73.69
2022-12-17T16:40:35.501Z,73.05
2022-12-17T16:43:18.267Z,73.32
2022-12-17T16:46:00.527Z,73.73
2022-12-17T16:48:53.302Z,73.85
2022-12-17T16:51:42.556Z,73.32
2022-12-17T16:54:27.254Z,73.50
2022-12-17T16:57:15.554Z,73.87
2022-12-17T16:59:58.280Z,73.40
2022-12-17T17:02:52.792Z,72.47
2022-12-17T17:05:39.232Z,74.02
2022-12-17T17:08:29.117Z,73.41
2022-12-17T17:11:24.545Z,72.08
2022-12-17T17:14:14.092Z,73.36
2022-12-17T17:16:56.475Z,73.45
2022-12-17T17:19:45.271Z,72.87
2022-12-17T17:22:27.689Z,73.03
2022-12-17T17:25:16.675Z,72.98
2022-12-17T17:27:58.523Z,72.47
2022-12-17T17:30:47.215Z,72.83
2022-12-17T17:33:40.801Z,72.91
2022-12-17T17:36:31.226Z,73.16
2022-12-17T17:39:19.535Z,73.73
2022-12-17T17:42:01.266Z,74.06
2022-12-17T17:44:50.018Z,73.82
2022-12-17T17:47:33.285Z,73.29
2022-12-17T17:50:15.397Z,73.01
2022-12-17T17:53:04.229Z,72.75
2022-12-17T17:55:53.225Z,73.82
2022-12-17T17:58:35.705Z,73.97
2022-12-17T18:01:37.282Z,74.73
2022-12-17T18:04:29.224Z,74.65
2022-12-17T18:07:26.602Z,74.08
2022-12-17T18:10:10.011Z,74.23
2022-12-17T18:13:17.141Z,74.58
2022-12-17T18:16:06.290Z,74.80
2022-12-17T18:18:56.063Z,75.15
2022-12-17T18:21:41.176Z,74.53
2022-12-17T18:24:24.495Z,74.20
2022-12-17T18:27:13.094Z,74.26
2022-12-17T18:30:02.143Z,74.37
2022-12-17T18:32:58.128Z,74.09
2022-12-17T18:35:40.495Z,74.31
2022-12-17T18:38:29.253Z,74.23
2022-12-17T18:41:46.097Z,74.37
2022-12-17T18:44:36.323Z,74.61
2022-12-17T18:47:26.445Z,75.26
2022-12-17T18:50:08.266Z,74.79
2022-12-17T18:53:12.065Z,75.62
2022-12-17T18:56:01.167Z,75.29
2022-12-17T18:58:50.244Z,75.19
2022-12-17T19:01:35.811Z,75.00
2022-12-17T19:04:28.144Z,75.13
2022-12-17T19:07:17.556Z,75.54
2022-12-17T19:10:00.117Z,75.33
2022-12-17T19:12:48.535Z,75.47
2022-12-17T19:15:31.282Z,75.43
2022-12-17T19:18:20.601Z,75.67
2022-12-17T19:21:08.186Z,76.38
2022-12-17T19:23:58.754Z,75.45
2022-12-17T19:26:41.169Z,75.00
2022-12-17T19:29:30.540Z,75.23
2022-12-17T19:32:13.484Z,75.29
2022-12-17T19:34:55.575Z,75.75
2022-12-17T19:37:44.273Z,75.43
2022-12-17T19:40:32.490Z,75.69
2022-12-17T19:43:15.243Z,75.87
2022-12-17T19:46:04.174Z,74.61
2022-12-17T19:48:57.348Z,75.02
2022-12-17T19:51:45.526Z,76.09
2022-12-17T19:54:27.217Z,75.39
2022-12-17T19:57:15.491Z,75.32
2022-12-17T19:59:57.225Z,75.25
2022-12-17T20:02:48.406Z,75.21
2022-12-17T20:05:37.142Z,75.28
2022-12-17T20:08:22.465Z,76.08
2022-12-17T20:11:12.175Z,76.13
2022-12-17T20:14:03.237Z,74.91
2022-12-17T20:16:48.561Z,75.34
2022-12-17T20:19:42.137Z,74.26
2022-12-17T20:22:24.611Z,75.12
2022-12-17T20:25:17.154Z,73.97
2022-12-17T20:27:59.567Z,74.26
2022-12-17T20:30:49.144Z,73.99
2022-12-17T20:33:38.107Z,74.22
2022-12-17T20:36:22.173Z,74.71
2022-12-17T20:39:11.189Z,75.46
2022-12-17T20:41:53.342Z,74.44
2022-12-17T20:44:42.117Z,75.01
2022-12-17T20:47:31.239Z,74.76
2022-12-17T20:50:13.564Z,75.18
2022-12-17T20:53:02.197Z,76.12
2022-12-17T20:55:44.509Z,76.01
2022-12-17T20:58:33.244Z,76.38
2022-12-17T21:01:26.293Z,75.96
2022-12-17T21:04:14.570Z,76.30
2022-12-17T21:06:57.228Z,75.04
2022-12-17T21:09:39.491Z,75.17
2022-12-17T21:12:28.187Z,76.17
2022-12-17T21:15:17.564Z,76.56
2022-12-17T21:18:00.181Z,76.39
2022-12-17T21:20:43.892Z,76.09
2022-12-17T21:23:33.295Z,76.10
2022-12-17T21:26:30.277Z,75.72
2022-12-17T21:29:15.059Z,76.46
2022-12-17T21:32:11.203Z,75.52
2022-12-17T21:34:59.539Z,75.93
2022-12-17T21:37:41.198Z,75.53
2022-12-17T21:40:29.739Z,74.93
2022-12-17T21:43:11.189Z,75.64
2022-12-17T21:46:04.652Z,75.06
2022-12-17T21:48:49.574Z,75.74
2022-12-17T21:51:39.439Z,75.48
2022-12-17T21:54:21.104Z,75.59
2022-12-17T21:57:10.278Z,75.85
2022-12-17T21:59:52.495Z,76.36
2022-12-17T22:02:42.362Z,75.87
2022-12-17T22:05:24.514Z,76.35
2022-12-17T22:08:13.233Z,76.14
2022-12-17T22:10:55.454Z,75.68
2022-12-17T22:14:08.030Z,76.05
2022-12-17T22:17:01.097Z,75.74
2022-12-17T22:19:50.187Z,75.79
2022-12-17T22:22:39.090Z,76.34
2022-12-17T22:25:28.116Z,76.03
2022-12-17T22:28:17.146Z,75.93
2022-12-17T22:31:29.892Z,76.44
2022-12-17T22:34:59.333Z,76.78
2022-12-17T22:41:00.392Z,76.47
2022-12-17T22:44:30.302Z,76.11
2022-12-17T22:44:51.860Z,75.75
2022-12-17T22:46:43.218Z,75.60
2022-12-17T22:49:27.512Z,75.62
2022-12-17T22:52:16.523Z,75.77
2022-12-17T22:55:00.491Z,76.23
2022-12-17T22:57:49.238Z,76.58
2022-12-17T23:00:34.484Z,76.83
2022-12-17T23:03:23.269Z,76.44
2022-12-17T23:06:23.546Z,76.33
2022-12-17T23:09:12.221Z,76.23
2022-12-17T23:11:56.500Z,76.13
2022-12-17T23:14:45.255Z,76.53
2022-12-17T23:17:27.425Z,76.46
2022-12-17T23:20:17.180Z,77.26
2022-12-17T23:22:59.469Z,76.64
2022-12-17T23:25:49.171Z,76.27
2022-12-17T23:28:31.511Z,76.67
2022-12-17T23:31:27.235Z,75.83
2022-12-17T23:34:16.454Z,75.81
2022-12-17T23:36:58.151Z,75.36
2022-12-17T23:39:47.148Z,75.01
2022-12-17T23:42:36.011Z,75.15
2022-12-17T23:45:25.453Z,75.51
2022-12-17T23:48:08.943Z,75.46
2022-12-17T23:50:59.078Z,76.26
2022-12-17T23:53:43.536Z,75.99
2022-12-17T23:56:34.402Z,76.25
2022-12-17T23:59:18.383Z,77.23
